SBOSBO BUD / LHBP
Speedbird OnlineSpeedbird Online BUD / LHBP

Budapest Liszt Ferenc International Airport
10:33 14.3°C

Location Budapest, Hungary
Latitude: 47.42976
Longitude: 19.261093
Web Airport Website | Wikipedia
Altitude 151 Meter / 495 Feet
Distance 1,450 KM / 901 Miles
from London.
Time Zone UTC +2 hours (Europe/Budapest)
Codes IATA: BUD
ICAO: LHBP
Currency £1 equals HUF 482.54
Runways
RunwayLength (m)Surface
13L3707Concrete
13R3010Concrete
31L3010Concrete
31R3707Concrete
Radio
TypeDescriptionFrequency
ACCBUDAPEST APP129.7
APPDIRECTOR119.5
APRSApron Guide South122.45
APRWApron Guide West131.55
ATISATIS132.375
CDCDelivery134.55
GNDGND121.9
TWRTWR118.1
Live ATC
METAR LHBP 060800Z VRB02KT CAVOK 13/09 Q1029 NOSIG
TAF TAF LHBP 060515Z 0606/0706 11005KT CAVOK BECMG 0608/0611 24005KT BECMG 0614/0617 VRB03KT BECMG 0619/0622 07006KT
Weather As Of 06 Oct 2022 10:33
Description Clear sky
Wind 6 km/h from West (260°)
Cloud Cover 0%
Precipitation Rain: none, Snow: none
Sunrise 06:48
Sunset 18:13
Lounges Platinum Lounge Schengen Pier, Teminal 2A
Mastercard Airport Lounge, Terminal 2
Platinum Lounge Non Schengen Pier (Temporarily Closed), Terminal 2B (Non-Schengen)
Rotations During the last 90 days there were
161 flights from LHR
149 flights to LHR
1 flights to LGW


© 2017-2022 Speedbird Online